Time;durP1;ratioP1;P1;durP2;ratioP2;P2;SDS_P1;SDS_P2;PMS_P1;PMS_P2;Temp;Humidity;BMP_temperature;BMP_pressure;BME280_temperature;BME280_humidity;BME280_pressure;Samples;Min_cycle;Max_cycle;Signal;HPM_P1;HPM_P2
2023/05/19 00:00:17;;;;;;;6.90;3.92;;;12.20;99.90;;;;;;2116353;27;20037;-74
2023/05/19 00:01:18;;;;;;;6.25;4.30;;;12.20;99.90;;;;;;2108468;27;20055;-72
2023/05/19 00:02:19;;;;;;;7.38;4.38;;;12.20;99.90;;;;;;2107365;27;20530;-73
2023/05/19 00:03:20;;;;;;;7.97;4.50;;;12.20;99.90;;;;;;2087878;28;20089;-73
2023/05/19 00:04:21;;;;;;;6.47;4.47;;;12.20;99.90;;;;;;2100244;28;20411;-73
2023/05/19 00:05:23;;;;;;;5.22;4.18;;;12.20;99.90;;;;;;2108342;27;20115;-72
2023/05/19 00:06:26;;;;;;;6.55;4.20;;;12.20;99.90;;;;;;2117076;27;20106;-73
2023/05/19 00:07:30;;;;;;;5.63;3.80;;;12.20;99.90;;;;;;2107061;27;20557;-73
2023/05/19 00:08:32;;;;;;;7.95;4.47;;;12.20;99.90;;;;;;2105147;27;20032;-74
2023/05/19 00:09:33;;;;;;;7.70;4.35;;;12.20;99.90;;;;;;2104513;28;20027;-72
2023/05/19 00:10:34;;;;;;;6.97;4.40;;;12.20;99.90;;;;;;2101650;28;20023;-71
2023/05/19 00:11:36;;;;;;;7.97;4.47;;;12.10;99.90;;;;;;2106919;27;20011;-79
2023/05/19 00:12:38;;;;;;;6.47;3.95;;;12.10;99.90;;;;;;2107964;27;20123;-74
2023/05/19 00:13:38;;;;;;;6.85;4.40;;;12.10;99.90;;;;;;2107746;27;20027;-74
2023/05/19 00:14:39;;;;;;;5.82;4.30;;;12.10;99.90;;;;;;2116187;27;20426;-74
2023/05/19 00:15:40;;;;;;;5.25;4.03;;;12.10;99.90;;;;;;2113746;27;20102;-75
2023/05/19 00:16:41;;;;;;;4.80;3.80;;;12.10;99.90;;;;;;2120851;27;20027;-74
2023/05/19 00:17:42;;;;;;;6.18;4.22;;;12.10;99.90;;;;;;2111919;27;20110;-75
2023/05/19 00:18:42;;;;;;;6.03;4.43;;;12.10;99.90;;;;;;2111952;27;20413;-74
2023/05/19 00:19:43;;;;;;;5.78;4.03;;;12.10;99.90;;;;;;2121107;27;20481;-74
2023/05/19 00:20:44;;;;;;;6.68;4.10;;;12.10;99.90;;;;;;2122488;27;20508;-74
2023/05/19 00:21:44;;;;;;;6.72;3.92;;;12.10;99.90;;;;;;2110394;27;20078;-74
2023/05/19 00:22:45;;;;;;;6.80;4.10;;;12.10;99.90;;;;;;2110344;27;20043;-74
2023/05/19 00:23:46;;;;;;;8.02;4.30;;;12.10;99.90;;;;;;2100562;28;20015;-73
2023/05/19 00:24:46;;;;;;;7.32;4.30;;;12.00;99.90;;;;;;2104985;28;20117;-76
2023/05/19 00:25:47;;;;;;;6.10;4.10;;;12.10;99.90;;;;;;2120697;27;20017;-75
2023/05/19 00:26:47;;;;;;;6.47;4.32;;;12.10;99.90;;;;;;2099323;28;20750;-76
2023/05/19 00:27:48;;;;;;;5.88;4.07;;;12.00;99.90;;;;;;2102278;28;20113;-75
2023/05/19 00:28:49;;;;;;;7.13;4.00;;;12.00;99.90;;;;;;2118722;27;20022;-76
2023/05/19 00:29:49;;;;;;;6.82;4.15;;;12.00;99.90;;;;;;2119825;27;20389;-76
2023/05/19 00:30:50;;;;;;;7.53;4.20;;;12.00;99.90;;;;;;2109635;27;20152;-75
2023/05/19 00:31:51;;;;;;;5.55;3.92;;;12.00;99.90;;;;;;2107616;27;20030;-75
2023/05/19 00:32:52;;;;;;;6.43;4.28;;;12.00;99.90;;;;;;2122290;27;20610;-75
2023/05/19 00:33:53;;;;;;;6.75;4.00;;;12.00;99.90;;;;;;2120785;27;20489;-73
2023/05/19 00:34:53;;;;;;;6.93;4.13;;;12.00;99.90;;;;;;2098809;28;20028;-74
2023/05/19 00:35:54;;;;;;;7.53;4.20;;;12.00;99.90;;;;;;2096737;28;20036;-75
2023/05/19 00:36:54;;;;;;;7.97;4.47;;;12.00;99.90;;;;;;2109629;27;20038;-74
2023/05/19 00:37:56;;;;;;;5.60;3.90;;;11.90;99.90;;;;;;2103029;28;20034;-74
2023/05/19 00:38:56;;;;;;;8.35;4.30;;;11.90;99.90;;;;;;2102576;28;20027;-74
2023/05/19 00:39:58;;;;;;;6.55;4.15;;;11.90;99.90;;;;;;2112851;27;20122;-74
2023/05/19 00:41:00;;;;;;;5.80;4.15;;;11.90;99.90;;;;;;2119448;27;20350;-74
2023/05/19 00:42:01;;;;;;;6.70;4.10;;;11.90;99.90;;;;;;2117475;27;20072;-75
2023/05/19 00:43:04;;;;;;;6.57;4.22;;;11.90;99.90;;;;;;2116484;27;20087;-72
2023/05/19 00:44:05;;;;;;;7.18;4.20;;;11.90;99.90;;;;;;2121961;27;20405;-73
2023/05/19 00:45:07;;;;;;;7.15;4.20;;;11.90;99.90;;;;;;2111652;27;20028;-73
2023/05/19 00:46:07;;;;;;;7.00;4.35;;;11.90;99.90;;;;;;2107620;28;20541;-74
2023/05/19 00:47:08;;;;;;;6.93;4.30;;;11.90;99.90;;;;;;2117293;27;20023;-74
2023/05/19 00:48:09;;;;;;;6.75;3.97;;;11.90;99.90;;;;;;2108980;28;20053;-74
2023/05/19 00:49:10;;;;;;;7.55;4.20;;;11.80;99.90;;;;;;2092892;28;20031;-74
2023/05/19 00:50:10;;;;;;;7.00;4.25;;;11.80;99.90;;;;;;2106762;27;20023;-74
2023/05/19 00:51:15;;;;;;;9.25;4.18;;;11.80;99.90;;;;;;2119475;27;20113;-73
2023/05/19 00:52:15;;;;;;;6.00;4.30;;;11.70;99.90;;;;;;2119834;27;20042;-74
2023/05/19 00:53:18;;;;;;;7.53;4.78;;;11.70;99.90;;;;;;2112982;27;20550;-74
2023/05/19 00:54:19;;;;;;;6.57;4.30;;;11.70;99.90;;;;;;2111409;27;20024;-74
2023/05/19 00:55:28;;;;;;;6.95;4.20;;;11.60;99.90;;;;;;2102120;28;20464;-74
2023/05/19 00:56:28;;;;;;;6.55;4.50;;;11.60;99.90;;;;;;2102431;28;20034;-73
2023/05/19 00:57:29;;;;;;;7.43;4.55;;;11.60;99.90;;;;;;2103097;28;20780;-74
2023/05/19 00:58:31;;;;;;;6.05;4.53;;;11.60;99.90;;;;;;2086869;28;20063;-76
2023/05/19 00:59:32;;;;;;;8.55;4.82;;;11.50;99.90;;;;;;2083975;28;20046;-74
2023/05/19 01:00:33;;;;;;;7.13;4.68;;;11.50;99.90;;;;;;2096311;28;20547;-74
2023/05/19 01:01:35;;;;;;;7.03;4.65;;;11.50;99.90;;;;;;2104051;28;20022;-74
2023/05/19 01:02:38;;;;;;;6.82;4.85;;;11.40;99.90;;;;;;2110648;28;20028;-73
2023/05/19 01:03:41;;;;;;;6.57;4.78;;;11.40;99.90;;;;;;2108913;28;20031;-74
2023/05/19 01:04:43;;;;;;;8.57;5.10;;;11.40;99.90;;;;;;2108829;28;20069;-74
2023/05/19 01:05:44;;;;;;;7.57;4.85;;;11.40;99.90;;;;;;2103089;28;20134;-72
2023/05/19 01:06:53;;;;;;;6.97;5.10;;;11.40;99.90;;;;;;2096015;28;20515;-73
2023/05/19 01:07:55;;;;;;;7.60;4.72;;;11.40;99.90;;;;;;2096834;28;20120;-75
2023/05/19 01:08:56;;;;;;;8.35;5.20;;;11.30;99.90;;;;;;2099325;28;20087;-73
2023/05/19 01:09:57;;;;;;;8.60;5.13;;;11.30;99.90;;;;;;2095513;28;20056;-74
2023/05/19 01:10:58;;;;;;;6.03;4.90;;;11.30;99.90;;;;;;2102029;28;20499;-74
2023/05/19 01:12:00;;;;;;;7.45;4.90;;;11.30;99.90;;;;;;2096242;28;20112;-76
2023/05/19 01:13:04;;;;;;;7.70;4.90;;;11.20;99.90;;;;;;2103683;28;20099;-75
2023/05/19 01:14:05;;;;;;;6.93;4.95;;;11.20;99.90;;;;;;2096156;28;20064;-74
2023/05/19 01:15:08;;;;;;;7.50;5.13;;;11.20;99.90;;;;;;2094394;28;20021;-74
2023/05/19 01:16:16;;;;;;;6.47;5.28;;;11.20;99.90;;;;;;2094555;28;20028;-74
2023/05/19 01:17:33;;;;;;;8.43;5.25;;;11.10;99.90;;;;;;2099460;28;20019;-73
2023/05/19 01:18:41;;;;;;;7.25;4.70;;;11.10;99.90;;;;;;2103613;28;20310;-73
2023/05/19 01:20:05;;;;;;;8.07;4.78;;;11.10;99.90;;;;;;2104674;28;20456;-73
2023/05/19 01:21:46;;;;;;;6.75;4.78;;;11.10;99.90;;;;;;2107445;28;20062;-73
2023/05/19 01:22:56;;;;;;;7.20;4.90;;;11.00;99.90;;;;;;2105799;28;20105;-73
2023/05/19 01:24:31;;;;;;;8.07;5.07;;;11.00;99.90;;;;;;2096666;28;20024;-73
2023/05/19 01:25:59;;;;;;;7.82;5.18;;;11.00;99.90;;;;;;2093837;28;20107;-73
2023/05/19 01:27:23;;;;;;;9.32;5.40;;;11.00;99.90;;;;;;2082428;28;20465;-73
2023/05/19 01:28:35;;;;;;;7.82;5.20;;;11.00;99.90;;;;;;2099829;28;20114;-73
2023/05/19 01:29:52;;;;;;;7.93;5.20;;;10.90;99.90;;;;;;2096254;28;20058;-74
2023/05/19 01:30:57;;;;;;;8.25;5.30;;;11.00;99.90;;;;;;2094021;28;20476;-74
2023/05/19 01:31:59;;;;;;;7.75;5.28;;;10.90;99.90;;;;;;2103713;28;20106;-73
2023/05/19 01:33:05;;;;;;;7.95;5.20;;;10.90;99.90;;;;;;2098835;28;20131;-74
2023/05/19 01:34:06;;;;;;;8.90;5.70;;;10.90;99.90;;;;;;2093266;28;20024;-72
2023/05/19 01:35:08;;;;;;;9.70;5.70;;;10.90;99.90;;;;;;2105216;28;20036;-73
2023/05/19 01:36:11;;;;;;;10.05;6.25;;;10.80;99.90;;;;;;2112418;27;20701;-73
2023/05/19 01:37:13;;;;;;;9.25;5.65;;;10.90;99.90;;;;;;2100914;28;20499;-72
2023/05/19 01:38:16;;;;;;;7.90;5.72;;;10.80;99.90;;;;;;2086507;28;20028;-73
2023/05/19 01:39:18;;;;;;;9.57;5.97;;;10.80;99.90;;;;;;2099906;28;20031;-74
2023/05/19 01:40:20;;;;;;;9.00;5.68;;;10.80;99.90;;;;;;2094595;28;20032;-73
2023/05/19 01:41:23;;;;;;;10.00;6.03;;;10.80;99.90;;;;;;2097560;28;20064;-72
2023/05/19 01:42:26;;;;;;;8.63;5.97;;;10.80;99.90;;;;;;2115322;27;20027;-73
2023/05/19 01:43:28;;;;;;;8.10;6.07;;;10.80;99.90;;;;;;2107012;27;20032;-73
2023/05/19 01:44:28;;;;;;;8.23;6.05;;;10.80;99.90;;;;;;2111132;27;20024;-72
2023/05/19 01:45:31;;;;;;;8.82;6.35;;;10.80;99.90;;;;;;2100474;28;20549;-73
2023/05/19 01:46:32;;;;;;;7.93;5.95;;;10.80;99.90;;;;;;2097917;28;20043;-73
2023/05/19 01:47:37;;;;;;;8.52;6.32;;;10.80;99.90;;;;;;2099732;28;20024;-75
2023/05/19 01:48:37;;;;;;;7.93;6.07;;;10.80;99.90;;;;;;2094745;28;20119;-73
2023/05/19 01:49:38;;;;;;;8.48;6.15;;;10.70;99.90;;;;;;2100599;28;20672;-74
2023/05/19 01:50:40;;;;;;;7.85;6.03;;;10.70;99.90;;;;;;2108975;28;20077;-74
2023/05/19 01:51:42;;;;;;;9.30;6.18;;;10.70;99.90;;;;;;2091249;28;20179;-75
2023/05/19 01:52:42;;;;;;;9.02;6.07;;;10.70;99.90;;;;;;2093514;28;20589;-74
2023/05/19 01:53:43;;;;;;;8.45;5.90;;;10.60;99.90;;;;;;2099552;28;20028;-74
2023/05/19 01:54:43;;;;;;;8.77;5.75;;;10.70;99.90;;;;;;2091299;28;20025;-74
2023/05/19 01:55:48;;;;;;;7.63;5.38;;;10.70;99.90;;;;;;2099145;28;20058;-74
2023/05/19 01:57:08;;;;;;;7.30;5.72;;;10.60;99.90;;;;;;2109228;27;20490;-74
2023/05/19 01:58:27;;;;;;;;;;;10.60;99.90;;;;;;2104728;28;20037;-74
2023/05/19 01:59:39;;;;;;;9.80;5.90;;;10.60;99.90;;;;;;2105881;28;20810;-73
2023/05/19 02:01:01;;;;;;;7.82;5.88;;;10.60;99.90;;;;;;2105169;28;20024;-74
2023/05/19 02:02:15;;;;;;;8.68;5.57;;;10.60;99.90;;;;;;2112544;27;20547;-75
2023/05/19 02:03:28;;;;;;;8.48;5.82;;;10.60;99.90;;;;;;2108545;27;20513;-74
2023/05/19 02:04:42;;;;;;;8.20;5.50;;;10.50;99.90;;;;;;2106143;27;20035;-75
2023/05/19 02:05:58;;;;;;;8.82;5.90;;;10.50;99.90;;;;;;2113471;27;20034;-75
2023/05/19 02:07:14;;;;;;;8.93;5.88;;;10.60;99.90;;;;;;2113650;27;20027;-75
2023/05/19 02:08:37;;;;;;;6.85;5.47;;;10.50;99.90;;;;;;2106630;28;20036;-76
2023/05/19 02:10:07;;;;;;;8.98;5.88;;;10.50;99.90;;;;;;2108506;27;20027;-76
2023/05/19 02:11:21;;;;;;;10.18;5.40;;;10.50;99.90;;;;;;2110864;27;20039;-76
2023/05/19 02:12:32;;;;;;;7.95;5.45;;;10.50;99.90;;;;;;2111856;27;20041;-76
2023/05/19 02:13:37;;;;;;;7.95;5.40;;;10.50;99.90;;;;;;2110439;27;20054;-76
2023/05/19 02:14:48;;;;;;;7.25;5.20;;;10.50;99.90;;;;;;2108245;28;20031;-74
2023/05/19 02:15:51;;;;;;;9.18;5.50;;;10.50;99.90;;;;;;2103548;28;20209;-74
2023/05/19 02:16:52;;;;;;;8.38;5.32;;;10.50;99.90;;;;;;2103378;27;20046;-74
2023/05/19 02:17:56;;;;;;;8.60;5.30;;;10.50;99.90;;;;;;2103741;28;20056;-75
2023/05/19 02:18:58;;;;;;;11.95;5.35;;;10.50;99.90;;;;;;2104616;27;20445;-75
2023/05/19 02:19:58;;;;;;;8.07;5.30;;;10.50;99.90;;;;;;2115446;27;20406;-75
2023/05/19 02:20:59;;;;;;;9.80;5.10;;;10.40;99.90;;;;;;2114167;27;20174;-75
2023/05/19 02:22:00;;;;;;;7.40;5.38;;;10.40;99.90;;;;;;2108205;28;20558;-75
2023/05/19 02:23:01;;;;;;;6.65;5.00;;;10.40;99.90;;;;;;2107805;27;20320;-76
2023/05/19 02:24:01;;;;;;;6.90;4.85;;;10.40;99.90;;;;;;2104237;28;20012;-76
2023/05/19 02:25:02;;;;;;;8.20;5.60;;;10.40;99.90;;;;;;2109095;27;20140;-75
2023/05/19 02:26:07;;;;;;;7.72;4.93;;;10.40;99.90;;;;;;2105531;27;20059;-76
2023/05/19 02:27:07;;;;;;;8.60;5.32;;;10.40;99.90;;;;;;2116406;27;20023;-75
2023/05/19 02:28:08;;;;;;;7.88;5.20;;;10.40;99.90;;;;;;2121080;27;20367;-74
2023/05/19 02:29:09;;;;;;;8.75;5.10;;;10.40;99.90;;;;;;2111588;27;20548;-74
2023/05/19 02:30:09;;;;;;;8.27;5.18;;;10.40;99.90;;;;;;2113681;27;20055;-74
2023/05/19 02:31:10;;;;;;;8.40;5.45;;;10.40;99.90;;;;;;2108948;27;20027;-75
2023/05/19 02:32:11;;;;;;;8.10;5.65;;;10.40;99.90;;;;;;2106000;27;20028;-76
2023/05/19 02:33:11;;;;;;;8.90;5.38;;;10.40;99.90;;;;;;2109381;27;20055;-75
2023/05/19 02:34:12;;;;;;;8.20;5.60;;;10.40;99.90;;;;;;2122888;27;20094;-75
2023/05/19 02:35:13;;;;;;;10.00;5.25;;;10.40;99.90;;;;;;2110392;27;20114;-75
2023/05/19 02:36:13;;;;;;;7.35;5.43;;;10.40;99.90;;;;;;2110793;27;20039;-75
2023/05/19 02:37:14;;;;;;;8.25;5.03;;;10.40;99.90;;;;;;2111278;27;20019;-75
2023/05/19 02:38:15;;;;;;;7.80;5.20;;;10.40;99.90;;;;;;2113419;27;20107;-75
2023/05/19 02:39:16;;;;;;;8.40;5.30;;;10.40;99.90;;;;;;2103998;28;20028;-75
2023/05/19 02:40:17;;;;;;;7.15;5.25;;;10.40;99.90;;;;;;2098608;28;20036;-74
2023/05/19 02:41:17;;;;;;;7.22;5.00;;;10.40;99.90;;;;;;2090914;28;20024;-75
2023/05/19 02:42:18;;;;;;;8.38;5.03;;;10.40;99.90;;;;;;2097914;28;20123;-75
2023/05/19 02:43:19;;;;;;;7.85;5.20;;;10.40;99.90;;;;;;2094425;28;20031;-74
2023/05/19 02:44:19;;;;;;;6.22;4.72;;;10.40;99.90;;;;;;2100620;28;20347;-74
2023/05/19 02:45:20;;;;;;;6.72;5.22;;;10.40;99.90;;;;;;2093258;28;20028;-74
2023/05/19 02:46:20;;;;;;;6.85;4.68;;;10.40;99.90;;;;;;2099501;28;20039;-77
2023/05/19 02:47:21;;;;;;;7.93;5.60;;;10.40;99.90;;;;;;2103904;28;20028;-74
2023/05/19 02:48:21;;;;;;;8.15;5.50;;;10.40;99.90;;;;;;2105527;28;20471;-76
2023/05/19 02:49:22;;;;;;;7.88;5.00;;;10.40;99.90;;;;;;2090422;28;20071;-74
2023/05/19 02:50:22;;;;;;;8.20;5.30;;;10.40;99.90;;;;;;2092111;28;20122;-74
2023/05/19 02:51:23;;;;;;;7.80;5.65;;;10.40;99.90;;;;;;2097250;28;20051;-75
2023/05/19 02:52:24;;;;;;;7.63;5.45;;;10.40;99.90;;;;;;2090852;28;20236;-75
2023/05/19 02:53:25;;;;;;;7.40;5.32;;;10.40;99.90;;;;;;2097293;28;20035;-76
2023/05/19 02:54:25;;;;;;;8.15;5.63;;;10.40;99.90;;;;;;2099271;28;20036;-76
2023/05/19 02:55:26;;;;;;;8.38;5.75;;;10.40;99.90;;;;;;2104541;27;20326;-75
2023/05/19 02:56:27;;;;;;;7.10;5.43;;;10.40;99.90;;;;;;2110902;27;20024;-75
2023/05/19 02:57:28;;;;;;;6.80;5.35;;;10.40;99.90;;;;;;2113841;27;20422;-75
2023/05/19 02:58:29;;;;;;;8.25;5.50;;;10.40;99.90;;;;;;2116418;27;20493;-75
2023/05/19 02:59:30;;;;;;;6.90;5.13;;;10.40;99.90;;;;;;2108064;27;20028;-75
2023/05/19 03:00:30;;;;;;;6.22;5.15;;;10.40;99.90;;;;;;2099860;28;20538;-75
2023/05/19 03:01:31;;;;;;;9.77;5.40;;;10.40;99.90;;;;;;2112272;27;20086;-75
2023/05/19 03:02:32;;;;;;;9.35;5.32;;;10.30;99.90;;;;;;2113819;27;20027;-75
2023/05/19 03:03:33;;;;;;;7.97;5.50;;;10.30;99.90;;;;;;2102925;28;20028;-75
2023/05/19 03:04:40;;;;;;;7.28;5.35;;;10.30;99.90;;;;;;2102260;28;20035;-75
2023/05/19 03:05:41;;;;;;;8.63;5.25;;;10.30;99.90;;;;;;2105612;27;20576;-75
2023/05/19 03:06:44;;;;;;;8.82;5.57;;;10.30;99.90;;;;;;2105920;27;20028;-75
2023/05/19 03:07:45;;;;;;;7.00;5.30;;;10.30;99.90;;;;;;2122571;27;20019;-74
2023/05/19 03:08:46;;;;;;;10.68;6.47;;;10.30;99.90;;;;;;2108016;28;20120;-74
2023/05/19 03:09:47;;;;;;;7.97;5.90;;;10.30;99.90;;;;;;2096685;28;20036;-74
2023/05/19 03:10:47;;;;;;;12.07;5.72;;;10.30;99.90;;;;;;2099320;28;20035;-73
2023/05/19 03:11:48;;;;;;;9.55;5.90;;;10.30;99.90;;;;;;2102704;28;20043;-74
2023/05/19 03:12:49;;;;;;;8.07;5.80;;;10.30;99.90;;;;;;2100921;28;20082;-74
2023/05/19 03:13:50;;;;;;;8.38;5.35;;;10.30;99.90;;;;;;2111936;27;20114;-75
2023/05/19 03:14:50;;;;;;;8.68;5.72;;;10.20;99.90;;;;;;2112836;27;20038;-75
2023/05/19 03:15:51;;;;;;;7.88;5.55;;;10.20;99.90;;;;;;2110871;27;20080;-75
2023/05/19 03:16:51;;;;;;;9.18;5.45;;;10.20;99.90;;;;;;2110666;27;20497;-75
2023/05/19 03:17:52;;;;;;;9.10;5.47;;;10.20;99.90;;;;;;2113132;27;20090;-75
2023/05/19 03:18:54;;;;;;;8.05;5.53;;;10.20;99.90;;;;;;2121248;27;20029;-75
2023/05/19 03:19:55;;;;;;;10.02;6.05;;;10.10;99.90;;;;;;2099513;28;20111;-75
2023/05/19 03:20:55;;;;;;;8.30;5.30;;;10.10;99.90;;;;;;2100718;28;20289;-75
2023/05/19 03:21:56;;;;;;;7.05;5.43;;;10.10;99.90;;;;;;2108740;28;20024;-75
2023/05/19 03:22:57;;;;;;;8.35;5.55;;;10.10;99.90;;;;;;2102223;28;20027;-75
2023/05/19 03:23:58;;;;;;;6.97;5.32;;;10.10;99.90;;;;;;2110537;27;20020;-74
2023/05/19 03:24:58;;;;;;;8.52;5.38;;;10.10;99.90;;;;;;2102194;28;20510;-74
2023/05/19 03:26:00;;;;;;;7.20;5.28;;;10.10;99.90;;;;;;2113408;27;20034;-75
2023/05/19 03:27:01;;;;;;;8.25;5.63;;;10.00;99.90;;;;;;2092559;28;20035;-75
2023/05/19 03:28:02;;;;;;;8.40;5.63;;;10.00;99.90;;;;;;2099308;28;20028;-75
2023/05/19 03:29:03;;;;;;;7.50;5.10;;;10.00;99.90;;;;;;2112133;27;20612;-75
2023/05/19 03:30:06;;;;;;;7.05;5.35;;;10.00;99.90;;;;;;2103889;27;20039;-74
2023/05/19 03:31:12;;;;;;;9.52;5.35;;;9.90;99.90;;;;;;2109186;27;20034;-76
2023/05/19 03:32:12;;;;;;;7.18;5.07;;;10.00;99.90;;;;;;2101957;28;20054;-73
2023/05/19 03:33:13;;;;;;;7.38;5.15;;;9.90;99.90;;;;;;2093969;28;20056;-75
2023/05/19 03:34:14;;;;;;;8.85;5.28;;;9.90;99.90;;;;;;2102544;28;20073;-75
2023/05/19 03:35:15;;;;;;;8.25;5.18;;;9.90;99.90;;;;;;2102095;28;20050;-74
2023/05/19 03:36:16;;;;;;;7.70;5.82;;;9.90;99.90;;;;;;2104818;28;20061;-75
2023/05/19 03:37:17;;;;;;;8.35;5.30;;;9.90;99.90;;;;;;2103568;28;20028;-75
2023/05/19 03:38:17;;;;;;;9.07;5.55;;;9.90;99.90;;;;;;2096352;28;20496;-74
2023/05/19 03:39:25;;;;;;;8.75;5.32;;;9.90;99.90;;;;;;2104575;28;20036;-74
2023/05/19 03:40:26;;;;;;;8.82;6.00;;;9.80;99.90;;;;;;2112069;27;20042;-73
2023/05/19 03:41:32;;;;;;;8.35;5.97;;;9.90;99.90;;;;;;2113621;27;20023;-73
2023/05/19 03:42:34;;;;;;;7.80;5.50;;;9.90;99.90;;;;;;2094109;28;20028;-75
2023/05/19 03:43:34;;;;;;;7.60;5.10;;;9.90;99.90;;;;;;2102624;27;20116;-75
2023/05/19 03:44:38;;;;;;;6.00;4.97;;;9.90;99.90;;;;;;2101596;28;20535;-74
2023/05/19 03:45:39;;;;;;;8.30;5.40;;;9.90;99.90;;;;;;2093643;28;20029;-74
2023/05/19 03:46:57;;;;;;;6.68;5.18;;;10.00;99.90;;;;;;2107244;27;20486;-75
2023/05/19 03:48:27;;;;;;;7.57;5.40;;;10.00;99.90;;;;;;2101481;27;20686;-75
2023/05/19 03:50:06;;;;;;;8.30;5.38;;;10.00;99.90;;;;;;2079555;28;20047;-75
2023/05/19 03:51:22;;;;;;;7.45;5.07;;;10.00;99.90;;;;;;2071801;28;20145;-75
2023/05/19 03:52:25;;;;;;;7.55;5.40;;;10.00;99.90;;;;;;2068755;28;20069;-75
2023/05/19 03:53:31;;;;;;;8.50;5.45;;;10.00;99.90;;;;;;2075773;28;20526;-75
2023/05/19 03:54:32;;;;;;;7.38;5.20;;;10.00;99.90;;;;;;2075228;28;20040;-75
2023/05/19 03:55:33;;;;;;;8.30;5.35;;;10.10;99.90;;;;;;2085497;28;20041;-76
2023/05/19 03:56:38;;;;;;;7.68;5.50;;;10.10;99.90;;;;;;2111512;27;20036;-75
2023/05/19 03:57:44;;;;;;;8.23;5.30;;;10.10;99.90;;;;;;2122394;27;20037;-76
2023/05/19 03:58:45;;;;;;;6.75;5.00;;;10.10;99.90;;;;;;2111417;27;20035;-76
2023/05/19 03:59:46;;;;;;;8.40;5.40;;;10.10;99.90;;;;;;2106708;27;20093;-75
2023/05/19 04:00:47;;;;;;;7.90;5.18;;;10.20;99.90;;;;;;2121009;27;20726;-74
2023/05/19 04:01:48;;;;;;;8.07;5.63;;;10.20;99.90;;;;;;2122473;27;20055;-75
2023/05/19 04:02:49;;;;;;;7.68;5.57;;;10.20;99.90;;;;;;2119526;27;20075;-73
2023/05/19 04:03:50;;;;;;;7.22;5.68;;;10.20;99.90;;;;;;2119680;27;20058;-74
2023/05/19 04:04:51;;;;;;;8.70;5.20;;;10.30;99.90;;;;;;2120154;27;20027;-75
2023/05/19 04:05:52;;;;;;;7.07;5.10;;;10.30;99.90;;;;;;2120147;27;20041;-74
2023/05/19 04:06:52;;;;;;;8.20;5.50;;;10.30;99.90;;;;;;2113896;27;20102;-74
2023/05/19 04:07:54;;;;;;;8.57;5.60;;;10.30;99.90;;;;;;2107504;27;20053;-74
2023/05/19 04:08:54;;;;;;;7.78;5.25;;;10.30;99.90;;;;;;2116253;27;20732;-74
2023/05/19 04:09:55;;;;;;;8.00;5.30;;;10.30;99.90;;;;;;2122526;27;20069;-74
2023/05/19 04:10:56;;;;;;;8.05;5.15;;;10.30;99.90;;;;;;2114890;27;20041;-74
2023/05/19 04:11:56;;;;;;;6.95;5.18;;;10.30;99.90;;;;;;2101748;28;20115;-74
2023/05/19 04:12:58;;;;;;;7.65;5.20;;;10.30;99.90;;;;;;2098614;28;20028;-75
2023/05/19 04:14:00;;;;;;;7.78;5.00;;;10.30;99.90;;;;;;2093854;28;20028;-74
2023/05/19 04:15:00;;;;;;;8.27;5.20;;;10.30;99.90;;;;;;2093705;28;20147;-74
2023/05/19 04:16:01;;;;;;;9.20;4.93;;;10.40;99.90;;;;;;2102163;28;20035;-74
2023/05/19 04:17:02;;;;;;;7.63;5.00;;;10.30;99.90;;;;;;2112931;27;20138;-74
2023/05/19 04:18:03;;;;;;;6.22;4.82;;;10.30;99.90;;;;;;2120852;27;20042;-74
2023/05/19 04:19:03;;;;;;;6.20;5.25;;;10.40;99.90;;;;;;2112171;27;20019;-75
2023/05/19 04:20:05;;;;;;;8.77;5.20;;;10.40;99.90;;;;;;2119133;27;20508;-75
2023/05/19 04:21:07;;;;;;;8.32;5.00;;;10.40;99.90;;;;;;2107458;27;20062;-74
2023/05/19 04:22:08;;;;;;;6.82;4.82;;;10.40;99.90;;;;;;2096534;27;20086;-74
2023/05/19 04:23:09;;;;;;;7.90;5.45;;;10.50;99.90;;;;;;2110301;27;20023;-74
2023/05/19 04:24:09;;;;;;;6.82;5.00;;;10.40;99.90;;;;;;2108374;27;20024;-73
2023/05/19 04:25:10;;;;;;;6.82;4.93;;;10.50;99.90;;;;;;2104273;28;20028;-73
2023/05/19 04:26:13;;;;;;;7.32;4.90;;;10.50;99.90;;;;;;2103142;28;20495;-73
2023/05/19 04:27:15;;;;;;;8.63;4.82;;;10.50;99.90;;;;;;2101437;28;20031;-73
2023/05/19 04:28:16;;;;;;;7.30;5.15;;;10.60;99.90;;;;;;2103676;28;20053;-73
2023/05/19 04:29:17;;;;;;;8.20;5.10;;;10.60;99.90;;;;;;2104447;27;20031;-75
2023/05/19 04:30:21;;;;;;;7.15;5.03;;;10.70;99.90;;;;;;2111709;27;20034;-74
2023/05/19 04:31:21;;;;;;;8.40;5.00;;;10.70;99.90;;;;;;2101883;27;20039;-74
2023/05/19 04:32:22;;;;;;;7.90;5.03;;;10.70;99.90;;;;;;2110425;27;20024;-74
2023/05/19 04:33:24;;;;;;;6.70;4.88;;;10.70;99.90;;;;;;2105269;27;20028;-74
2023/05/19 04:34:24;;;;;;;8.10;5.22;;;10.70;99.90;;;;;;2104228;28;20055;-74
2023/05/19 04:35:25;;;;;;;8.38;5.22;;;10.80;99.90;;;;;;2111587;27;20552;-74
2023/05/19 04:36:28;;;;;;;8.15;5.15;;;10.80;99.90;;;;;;2111554;27;20038;-74
2023/05/19 04:37:29;;;;;;;8.00;4.97;;;10.80;99.90;;;;;;2103113;28;20567;-74
2023/05/19 04:38:30;;;;;;;7.30;4.88;;;10.80;99.90;;;;;;2113182;27;20102;-74
2023/05/19 04:39:30;;;;;;;7.10;4.80;;;10.80;99.90;;;;;;2110715;27;20094;-74
2023/05/19 04:40:31;;;;;;;8.70;5.28;;;10.80;99.90;;;;;;2110637;28;20035;-74
2023/05/19 04:41:33;;;;;;;7.35;5.28;;;10.80;99.90;;;;;;2106750;27;20069;-75
2023/05/19 04:42:34;;;;;;;8.27;5.25;;;10.80;99.90;;;;;;2101864;27;20032;-74
2023/05/19 04:43:43;;;;;;;7.78;5.07;;;10.80;99.90;;;;;;2093483;28;20091;-74
2023/05/19 04:44:44;;;;;;;7.47;5.32;;;10.90;99.90;;;;;;2094241;28;20028;-74
2023/05/19 04:45:46;;;;;;;8.32;5.10;;;10.90;99.90;;;;;;2096651;28;20024;-75
2023/05/19 04:46:46;;;;;;;7.20;5.10;;;10.90;99.90;;;;;;2098676;28;20032;-74
2023/05/19 04:47:47;;;;;;;8.48;5.25;;;10.90;99.90;;;;;;2099885;28;20689;-75
2023/05/19 04:48:49;;;;;;;5.72;4.80;;;10.90;99.90;;;;;;2110898;28;20055;-74
2023/05/19 04:49:54;;;;;;;6.72;4.90;;;10.90;99.90;;;;;;2112701;27;20429;-75
2023/05/19 04:50:54;;;;;;;6.57;4.60;;;10.90;99.90;;;;;;2099649;28;20032;-75
2023/05/19 04:51:55;;;;;;;7.70;5.10;;;11.00;99.90;;;;;;2093331;28;20032;-75
2023/05/19 04:53:00;;;;;;;7.40;4.68;;;11.00;99.90;;;;;;2093280;28;20020;-74
2023/05/19 04:54:02;;;;;;;7.75;5.18;;;11.00;99.90;;;;;;2098391;28;20073;-74
2023/05/19 04:55:03;;;;;;;7.25;4.70;;;11.10;99.90;;;;;;2104482;28;20028;-75
2023/05/19 04:56:04;;;;;;;7.38;5.03;;;11.10;99.90;;;;;;2089457;28;20124;-75
2023/05/19 04:57:09;;;;;;;7.15;4.70;;;11.10;99.90;;;;;;2101494;28;20020;-75
2023/05/19 04:58:11;;;;;;;7.15;4.93;;;11.10;99.90;;;;;;2109561;27;20046;-75
2023/05/19 04:59:12;;;;;;;7.75;5.10;;;11.20;99.90;;;;;;2102603;28;20031;-75
2023/05/19 05:00:14;;;;;;;8.20;4.63;;;11.20;99.90;;;;;;2094377;28;20071;-74
2023/05/19 05:01:27;;;;;;;6.38;4.45;;;11.20;99.90;;;;;;2098085;28;20032;-74
2023/05/19 05:02:30;;;;;;;7.45;4.80;;;11.20;99.90;;;;;;2111108;28;20039;-74
2023/05/19 05:03:33;;;;;;;5.53;4.32;;;11.30;99.90;;;;;;2103037;28;20036;-75
2023/05/19 05:04:35;;;;;;;8.35;4.95;;;11.30;99.90;;;;;;2106512;28;20030;-74
2023/05/19 05:05:36;;;;;;;7.43;4.82;;;11.30;99.90;;;;;;2100575;28;20536;-75
2023/05/19 05:06:37;;;;;;;6.85;4.95;;;11.30;99.90;;;;;;2093004;28;20063;-75
2023/05/19 05:07:38;;;;;;;9.75;5.18;;;11.30;99.90;;;;;;2093848;28;20540;-75
2023/05/19 05:08:40;;;;;;;6.63;4.93;;;11.20;99.90;;;;;;2097980;28;20059;-75
2023/05/19 05:09:40;;;;;;;6.45;4.72;;;11.20;99.90;;;;;;2091979;28;20214;-73
2023/05/19 05:10:41;;;;;;;6.25;4.40;;;11.30;99.90;;;;;;2104194;28;20111;-76
2023/05/19 05:11:43;;;;;;;6.30;4.95;;;11.30;99.90;;;;;;2111156;28;20034;-75
2023/05/19 05:12:43;;;;;;;5.13;4.18;;;11.40;99.90;;;;;;2119618;27;20544;-75
2023/05/19 05:13:44;;;;;;;10.07;4.85;;;11.40;99.90;;;;;;2109721;28;20202;-75
2023/05/19 05:14:45;;;;;;;6.05;4.32;;;11.40;99.90;;;;;;2101753;28;20028;-76
2023/05/19 05:15:46;;;;;;;5.90;4.65;;;11.40;99.90;;;;;;2110213;28;20043;-73
2023/05/19 05:16:48;;;;;;;7.60;4.88;;;11.40;99.90;;;;;;2102163;28;20312;-74
2023/05/19 05:17:55;;;;;;;7.50;4.97;;;11.50;99.90;;;;;;2101919;28;20032;-74
2023/05/19 05:18:56;;;;;;;6.07;4.50;;;11.50;99.90;;;;;;2104011;28;20044;-73
2023/05/19 05:19:57;;;;;;;6.10;4.75;;;11.60;99.90;;;;;;2110510;28;20024;-76
2023/05/19 05:20:59;;;;;;;5.63;4.40;;;11.60;99.90;;;;;;2099177;28;20040;-75
2023/05/19 05:22:00;;;;;;;7.75;4.65;;;11.60;99.90;;;;;;2100211;28;20435;-75
2023/05/19 05:23:02;;;;;;;6.80;5.15;;;11.70;99.90;;;;;;2087381;28;20535;-76
2023/05/19 05:24:03;;;;;;;8.55;5.18;;;11.80;99.90;;;;;;2094566;28;20035;-76
2023/05/19 05:25:06;;;;;;;7.47;5.07;;;11.80;99.90;;;;;;2097369;28;20032;-74
2023/05/19 05:26:15;;;;;;;5.88;4.70;;;11.90;99.90;;;;;;2109356;28;20047;-75
2023/05/19 05:27:16;;;;;;;7.47;5.20;;;11.90;99.90;;;;;;2099348;28;20058;-74
2023/05/19 05:28:17;;;;;;;7.82;4.75;;;12.00;99.90;;;;;;2103469;28;20598;-76
2023/05/19 05:29:19;;;;;;;8.35;5.30;;;12.10;99.90;;;;;;2109829;28;20273;-75